地図

経路データ

SID SEASON NUMBER BASIN SUBBASIN NAME ISO_TIME NATURE LAT LON WMO_WIND WMO_PRES WMO_AGENCY TRACK_TYPE DIST2LAND LANDFALL IFLAG USA_AGENCY USA_ATCF_ID USA_LAT USA_LON USA_RECORD USA_STATUS USA_WIND USA_PRES USA_SSHS USA_R34_NE USA_R34_SE USA_R34_SW USA_R34_NW USA_R50_NE USA_R50_SE USA_R50_SW USA_R50_NW USA_R64_NE USA_R64_SE USA_R64_SW USA_R64_NW USA_POCI USA_ROCI USA_RMW USA_EYE TOKYO_LAT TOKYO_LON TOKYO_GRADE TOKYO_WIND TOKYO_PRES TOKYO_R50_DIR TOKYO_R50_LONG TOKYO_R50_SHORT TOKYO_R30_DIR TOKYO_R30_LONG TOKYO_R30_SHORT TOKYO_LAND CMA_LAT CMA_LON CMA_CAT CMA_WIND CMA_PRES HKO_LAT HKO_LON HKO_CAT HKO_WIND HKO_PRES NEWDELHI_LAT NEWDELHI_LON NEWDELHI_GRADE NEWDELHI_WIND NEWDELHI_PRES NEWDELHI_CI NEWDELHI_DP NEWDELHI_POCI REUNION_LAT REUNION_LON REUNION_TYPE REUNION_WIND REUNION_PRES REUNION_TNUM REUNION_CI REUNION_RMW REUNION_R34_NE REUNION_R34_SE REUNION_R34_SW REUNION_R34_NW REUNION_R50_NE REUNION_R50_SE REUNION_R50_SW REUNION_R50_NW REUNION_R64_NE REUNION_R64_SE REUNION_R64_SW REUNION_R64_NW BOM_LAT BOM_LON BOM_TYPE BOM_WIND BOM_PRES BOM_TNUM BOM_CI BOM_RMW BOM_R34_NE BOM_R34_SE BOM_R34_SW BOM_R34_NW BOM_R50_NE BOM_R50_SE BOM_R50_SW BOM_R50_NW BOM_R64_NE BOM_R64_SE BOM_R64_SW BOM_R64_NW BOM_ROCI BOM_POCI BOM_EYE BOM_POS_METHOD BOM_PRES_METHOD NADI_LAT NADI_LON NADI_CAT NADI_WIND NADI_PRES WELLINGTON_LAT WELLINGTON_LON WELLINGTON_WIND WELLINGTON_PRES DS824_LAT DS824_LON DS824_STAGE DS824_WIND DS824_PRES TD9636_LAT TD9636_LON TD9636_STAGE TD9636_WIND TD9636_PRES TD9635_LAT TD9635_LON TD9635_WIND TD9635_PRES TD9635_ROCI NEUMANN_LAT NEUMANN_LON NEUMANN_CLASS NEUMANN_WIND NEUMANN_PRES MLC_LAT MLC_LON MLC_CLASS MLC_WIND MLC_PRES USA_GUST BOM_GUST BOM_GUST_PER REUNION_GUST REUNION_GUST_PER USA_SEAHGT USA_SEARAD_NE USA_SEARAD_SE USA_SEARAD_SW USA_SEARAD_NW STORM_SPEED STORM_DIR
1930038S19071 1930 10 SI MM NOT_NAMED 1930-02-07 06:00:00 NR -18.6000 71.4000 reunion main 1438 1415 _____O________ -1 -18.6000 71.4000 99 9.90000 4 242
1930038S19071 1930 10 SI MM NOT_NAMED 1930-02-07 09:00:00 NR -18.6883 71.2287 main 1415 1403 _____P________ -1 -18.6883 71.2287 99 4 242
1930038S19071 1930 10 SI MM NOT_NAMED 1930-02-07 12:00:00 NR -18.7801 71.0487 main 1392 1380 _____P________ -1 -18.7801 71.0487 99 4 242
1930038S19071 1930 10 SI MM NOT_NAMED 1930-02-07 15:00:00 NR -18.8789 70.8513 main 1380 1368 _____P________ -1 -18.8789 70.8513 99 4 234
1930038S19071 1930 10 SI MM NOT_NAMED 1930-02-07 18:00:00 NR -18.9906 70.7425 main 1358 1335 _____P____O___ -1 -18.9882 70.6281 99 -19.0000 71.2000 7 4 233
1930038S19071 1930 10 SI MM NOT_NAMED 1930-02-07 21:00:00 NR -19.1239 70.5108 main 1335 1301 _____P____P___ -1 -19.1116 70.3701 99 -19.1486 70.7921 7 6 241
1930038S19071 1930 10 SI MM NOT_NAMED 1930-02-08 00:00:00 NR -19.2761 70.1967 main 1301 1258 _____P____P___ -1 -19.2525 70.0688 99 -19.3075 70.3672 7 7 244
1930038S19071 1930 10 SI MM NOT_NAMED 1930-02-08 03:00:00 NR -19.4509 69.8119 main 1257 1214 _____P____P___ -1 -19.4142 69.7151 99 -19.4877 69.9087 7 9 245
1930038S19071 1930 10 SI MM NOT_NAMED 1930-02-08 06:00:00 NR -19.6500 69.3500 reunion main 1214 1159 _____O____O___ -1 -19.6000 69.3000 99 9.90000 -19.7000 69.4000 7 10 245
1930038S19071 1930 10 SI MM NOT_NAMED 1930-02-08 09:00:00 NR -19.8811 68.8249 main 1149 1095 _____P____P___ -1 -19.8116 68.8184 99 -19.9506 68.8314 7 11 245
1930038S19071 1930 10 SI MM NOT_NAMED 1930-02-08 12:00:00 NR -20.1364 68.2518 main 1095 1031 _____P____P___ -1 -20.0448 68.2806 99 -20.2280 68.2230 7 12 245
1930038S19071 1930 10 SI MM NOT_NAMED 1930-02-08 15:00:00 NR -20.4052 67.6522 main 1031 969 _____P____P___ -1 -20.2941 67.7012 99 -20.5162 67.6031 7 13 244
1930038S19071 1930 10 SI MM NOT_NAMED 1930-02-08 18:00:00 NR -20.6771 67.0475 main 959 907 _____P____O___ -1 -20.5541 67.0950 99 -20.8000 67.0000 7 12 244
1930038S19071 1930 10 SI MM NOT_NAMED 1930-02-08 21:00:00 NR -20.9422 66.4567 main 907 848 _____P____P___ -1 -20.8196 66.4766 99 -21.0648 66.4368 7 12 244
1930038S19071 1930 10 SI MM NOT_NAMED 1930-02-09 00:00:00 NR -21.2037 65.8791 main 848 799 _____P____P___ -1 -21.0856 65.8612 99 -21.3219 65.8971 7 12 244
1930038S19071 1930 10 SI MM NOT_NAMED 1930-02-09 03:00:00 NR -21.4576 65.3238 main 790 743 _____P____P___ -1 -21.3472 65.2639 99 -21.5681 65.3838 7 11 244
1930038S19071 1930 10 SI MM NOT_NAMED 1930-02-09 06:00:00 NR -21.7000 64.8000 reunion main 743 707 _____O____O___ -1 -21.6000 64.7000 99 9.90000 -21.8000 64.9000 7 10 243
1930038S19071 1930 10 SI MM NOT_NAMED 1930-02-09 09:00:00 NR -21.9219 64.3273 main 697 663 _____P____P___ -1 -21.8343 64.2052 99 -22.0095 64.4494 7 10 243
1930038S19071 1930 10 SI MM NOT_NAMED 1930-02-09 12:00:00 NR -22.1353 63.8810 main 663 631 _____P____P___ -1 -22.0641 63.7356 99 -22.2064 64.0263 7 9 242
1930038S19071 1930 10 SI MM NOT_NAMED 1930-02-09 15:00:00 NR -22.3444 63.4528 main 631 601 _____P____P___ -1 -22.2886 63.2905 99 -22.4002 63.6151 7 9 242
1930038S19071 1930 10 SI MM NOT_NAMED 1930-02-09 18:00:00 NR -22.5535 63.0344 main 596 562 _____P____O___ -1 -22.5069 62.8688 99 -22.6000 63.2000 7 9 241
1930038S19071 1930 10 SI MM NOT_NAMED 1930-02-09 21:00:00 NR -22.7742 62.5974 main 567 542 _____P____P___ -1 -22.7181 62.4698 99 -22.8303 62.7251 7 9 241
1930038S19071 1930 10 SI MM NOT_NAMED 1930-02-10 00:00:00 NR -22.9934 62.1703 main 542 519 _____P____P___ -1 -22.9213 62.0925 99 -23.0655 62.2481 7 9 241
1930038S19071 1930 10 SI MM NOT_NAMED 1930-02-10 03:00:00 NR -23.2042 61.7666 main 519 500 _____P____P___ -1 -23.1156 61.7362 99 -23.2929 61.7970 7 8 240
1930038S19071 1930 10 SI MM NOT_NAMED 1930-02-10 06:00:00 NR -23.4000 61.4000 reunion main 500 485 _____O____O___ -1 -23.3000 61.4000 99 9.90000 -23.5000 61.4000 7 7 240
1930038S19071 1930 10 SI MM NOT_NAMED 1930-02-10 09:00:00 NR -23.5674 61.0831 main 492 478 _____P____P___ -1 -23.4681 61.0704 99 -23.6667 61.0957 7 6 240
1930038S19071 1930 10 SI MM NOT_NAMED 1930-02-10 12:00:00 NR -23.7198 60.8053 main 479 474 _____P____P___ -1 -23.6256 60.7643 99 -23.8140 60.8464 7 6 239
1930038S19071 1930 10 SI MM NOT_NAMED 1930-02-10 15:00:00 NR -23.8648 60.5508 main 483 470 _____P____P___ -1 -23.7752 60.4776 99 -23.9544 60.6239 7 5 238
1930038S19071 1930 10 SI MM NOT_NAMED 1930-02-10 18:00:00 NR -24.0099 60.3033 main 473 468 _____P____O___ -1 -23.9197 60.2066 99 -24.1000 60.4000 7 5 237
1930038S19071 1930 10 SI MM NOT_NAMED 1930-02-10 21:00:00 NR -24.1610 60.0497 main 476 471 _____P____P___ -1 -24.0618 59.9474 99 -24.2603 60.1520 7 6 239
1930038S19071 1930 10 SI MM NOT_NAMED 1930-02-11 00:00:00 NR -24.3024 59.7753 main 476 471 _____P____P___ -1 -24.2041 59.6958 99 -24.4334 59.8811 7 6 241
1930038S19071 1930 10 SI MM NOT_NAMED 1930-02-11 03:00:00 NR -24.4378 59.4969 main 473 473 _____P____P___ -1 -24.3493 59.4481 99 -24.6148 59.5947 7 6 243
1930038S19071 1930 10 SI MM NOT_NAMED 1930-02-11 06:00:00 NR -24.5600 59.2200 reunion main 483 477 _____O____O___ -1 -24.5000 59.2000 99 9.90000 -24.8000 59.3000 7 5 246
1930038S19071 1930 10 SI MM NOT_NAMED 1930-02-11 09:00:00 NR -24.6581 58.9483 main 485 482 _____P________ -1 -24.6581 58.9483 99 7 5 241
1930038S19071 1930 10 SI MM NOT_NAMED 1930-02-11 12:00:00 NR -24.8232 58.6927 main 490 487 _____P________ -1 -24.8232 58.6927 99 7 6 234
1930038S19071 1930 10 SI MM NOT_NAMED 1930-02-11 15:00:00 NR -24.9942 58.4336 main 491 490 _____P________ -1 -24.9942 58.4336 99 7 6 234
1930038S19071 1930 10 SI MM NOT_NAMED 1930-02-11 18:00:00 NR -25.1700 58.1713 main 500 495 _____P________ -1 -25.1700 58.1713 99 6 233
1930038S19071 1930 10 SI MM NOT_NAMED 1930-02-11 21:00:00 NR -25.3496 57.9064 main 495 495 _____P________ -1 -25.3496 57.9064 99 6 233
1930038S19071 1930 10 SI MM NOT_NAMED 1930-02-12 00:00:00 NR -25.5318 57.6392 main 501 501 _____P________ -1 -25.5318 57.6392 99 6 233
1930038S19071 1930 10 SI MM NOT_NAMED 1930-02-12 03:00:00 NR -25.7156 57.3702 main 514 510 _____P________ -1 -25.7156 57.3702 99 6 233
1930038S19071 1930 10 SI MM NOT_NAMED 1930-02-12 06:00:00 NR -25.9000 57.1000 reunion main 525 _____O________ -1 -25.9000 57.1000 99 9.90000 6 233

IBTrACS Databaseについて

本データベースは、米国NOAAが公開する1842年以降の世界の熱帯低気圧のベストトラックデータアーカイブInternational Best Track Archive for Climate Stewardship (IBTrACS)を、ウェブで閲覧しやすい形式に変換したものです。

最終更新日:2021-10-21